createdAt,value
2022-12-29T00:00:57.028Z,99464.00
2022-12-29T00:03:26.978Z,99472.00
2022-12-29T00:05:58.476Z,99475.00
2022-12-29T00:08:40.410Z,99443.00
2022-12-29T00:11:12.903Z,99468.00
2022-12-29T00:13:59.464Z,99469.00
2022-12-29T00:16:28.607Z,99461.00
2022-12-29T00:18:55.634Z,99467.00
2022-12-29T00:21:43.255Z,99463.00
2022-12-29T00:24:37.843Z,99466.00
2022-12-29T00:27:23.094Z,99461.00
2022-12-29T00:30:09.312Z,99456.00
2022-12-29T00:32:55.201Z,99463.00
2022-12-29T00:35:34.549Z,99451.00
2022-12-29T00:38:26.242Z,99456.00
2022-12-29T00:41:11.679Z,99450.00
2022-12-29T00:43:57.227Z,99454.00
2022-12-29T00:46:24.139Z,99449.00
2022-12-29T00:49:09.588Z,99453.00
2022-12-29T00:51:36.468Z,99438.00
2022-12-29T00:54:03.486Z,99444.00
2022-12-29T00:56:30.648Z,99447.00
2022-12-29T00:59:10.271Z,99437.00
2022-12-29T01:01:38.762Z,99436.00
2022-12-29T01:04:07.007Z,99433.00
2022-12-29T01:06:36.780Z,99438.00
2022-12-29T01:09:23.534Z,99419.00
2022-12-29T01:11:50.928Z,99430.00
2022-12-29T01:14:19.744Z,99433.00
2022-12-29T01:16:49.370Z,99413.00
2022-12-29T01:19:18.279Z,99428.00
2022-12-29T01:21:46.430Z,99422.00
2022-12-29T01:24:14.043Z,99414.00
2022-12-29T01:26:41.019Z,99414.00
2022-12-29T01:29:08.705Z,99405.00
2022-12-29T01:31:36.328Z,99388.00
2022-12-29T01:34:04.247Z,99392.00
2022-12-29T01:36:31.142Z,99378.00
2022-12-29T01:38:58.016Z,99399.00
2022-12-29T01:41:25.033Z,99406.00
2022-12-29T01:44:00.094Z,99401.00
2022-12-29T01:46:37.532Z,99407.00
2022-12-29T01:49:25.835Z,99410.00
2022-12-29T01:52:08.834Z,99392.00
2022-12-29T01:54:43.871Z,99413.00
2022-12-29T01:57:19.396Z,99410.00
2022-12-29T02:00:02.637Z,99404.00
2022-12-29T02:02:33.232Z,99417.00
2022-12-29T02:05:05.635Z,99412.00
2022-12-29T02:07:32.924Z,99402.00
2022-12-29T02:10:02.867Z,99401.00
2022-12-29T02:12:29.687Z,99402.00
2022-12-29T02:15:03.236Z,99405.00
2022-12-29T02:18:10.190Z,99397.00
2022-12-29T02:21:11.883Z,99407.00
2022-12-29T02:23:59.938Z,99410.00
2022-12-29T02:26:56.712Z,99400.00
2022-12-29T02:29:58.343Z,99387.00
2022-12-29T02:32:57.576Z,99370.00
2022-12-29T02:35:38.577Z,99363.00
2022-12-29T02:38:41.859Z,99371.00
2022-12-29T02:41:51.763Z,99349.00
2022-12-29T02:44:40.366Z,99364.00
2022-12-29T02:47:29.083Z,99360.00
2022-12-29T02:50:24.087Z,99349.00
2022-12-29T02:53:03.057Z,99350.00
2022-12-29T02:55:29.935Z,99350.00
2022-12-29T02:58:23.823Z,99352.00
2022-12-29T03:01:28.050Z,99352.00
2022-12-29T03:04:22.222Z,99364.00
2022-12-29T03:07:21.331Z,99349.00
2022-12-29T03:10:04.370Z,99346.00
2022-12-29T03:13:00.782Z,99350.00
2022-12-29T03:16:04.198Z,99340.00
2022-12-29T03:19:08.965Z,99346.00
2022-12-29T03:22:09.438Z,99348.00
2022-12-29T03:24:44.079Z,99350.00
2022-12-29T03:27:17.635Z,99312.00
2022-12-29T03:29:54.429Z,99344.00
2022-12-29T03:32:34.516Z,99346.00
2022-12-29T03:35:04.583Z,99351.00
2022-12-29T03:37:46.292Z,99344.00
2022-12-29T03:40:13.200Z,99348.00
2022-12-29T03:42:41.918Z,99352.00
2022-12-29T03:45:10.063Z,99342.00
2022-12-29T03:47:37.022Z,99332.00
2022-12-29T03:50:04.244Z,99326.00
2022-12-29T03:52:31.074Z,99326.00
2022-12-29T03:54:57.925Z,99324.00
2022-12-29T03:57:24.784Z,99323.00
2022-12-29T03:59:51.615Z,99283.00
2022-12-29T04:13:36.604Z,99307.00
2022-12-29T04:16:03.828Z,99300.00
2022-12-29T04:18:30.707Z,99306.00
2022-12-29T04:21:06.532Z,99291.00
2022-12-29T04:23:38.093Z,99289.00
2022-12-29T04:26:07.979Z,99305.00
2022-12-29T04:28:34.851Z,99290.00
2022-12-29T04:31:02.319Z,99286.00
2022-12-29T04:33:29.421Z,99262.00
2022-12-29T04:35:56.636Z,99281.00
2022-12-29T04:38:25.119Z,99286.00
2022-12-29T04:40:52.305Z,99278.00
2022-12-29T04:43:23.236Z,99289.00
2022-12-29T04:45:50.362Z,99288.00
2022-12-29T04:48:17.420Z,99278.00
2022-12-29T04:50:48.933Z,99259.00
2022-12-29T04:53:17.555Z,99273.00
2022-12-29T04:55:50.202Z,99276.00
2022-12-29T04:58:22.410Z,99267.00
2022-12-29T05:00:50.586Z,99270.00
2022-12-29T05:03:17.587Z,99278.00
2022-12-29T05:05:45.258Z,99280.00
2022-12-29T05:08:12.202Z,99276.00
2022-12-29T05:10:45.662Z,99268.00
2022-12-29T05:13:12.570Z,99281.00
2022-12-29T05:15:39.454Z,99274.00
2022-12-29T05:18:06.337Z,99267.00
2022-12-29T05:20:33.900Z,99267.00
2022-12-29T05:23:00.806Z,99232.00
2022-12-29T05:25:27.639Z,99249.00
2022-12-29T05:27:54.754Z,99244.00
2022-12-29T05:30:21.689Z,99247.00
2022-12-29T05:32:48.528Z,99253.00
2022-12-29T05:35:15.418Z,99245.00
2022-12-29T05:37:42.283Z,99236.00
2022-12-29T05:40:09.625Z,99236.00
2022-12-29T05:42:36.586Z,99246.00
2022-12-29T05:45:04.240Z,99245.00
2022-12-29T05:47:31.047Z,99238.00
2022-12-29T05:49:57.916Z,99232.00
2022-12-29T05:52:24.725Z,99234.00
2022-12-29T05:54:51.813Z,99238.00
2022-12-29T05:57:18.655Z,99222.00
2022-12-29T05:59:45.631Z,99215.00
2022-12-29T06:02:12.605Z,99205.00
2022-12-29T06:04:39.561Z,99199.00
2022-12-29T06:07:06.475Z,99203.00
2022-12-29T06:09:34.166Z,99205.00
2022-12-29T06:12:01.013Z,99205.00
2022-12-29T06:14:27.864Z,99193.00
2022-12-29T06:16:54.752Z,99200.00
2022-12-29T06:19:21.573Z,99193.00
2022-12-29T06:21:48.447Z,99203.00
2022-12-29T06:24:15.271Z,99202.00
2022-12-29T06:26:42.943Z,99200.00
2022-12-29T06:29:10.093Z,99202.00
2022-12-29T06:31:37.091Z,99196.00
2022-12-29T06:34:08.333Z,99208.00
2022-12-29T06:36:35.816Z,99206.00
2022-12-29T06:39:02.675Z,99200.00
2022-12-29T06:41:32.433Z,99210.00
2022-12-29T06:44:01.804Z,99211.00
2022-12-29T06:46:28.698Z,99211.00
2022-12-29T06:48:55.562Z,99196.00
2022-12-29T06:51:22.421Z,99195.00
2022-12-29T06:53:49.277Z,99192.00
2022-12-29T06:56:16.175Z,99198.00
2022-12-29T06:58:42.989Z,99197.00
2022-12-29T07:01:09.846Z,99200.00
2022-12-29T07:03:36.708Z,99199.00
2022-12-29T07:06:04.164Z,99192.00
2022-12-29T07:08:31.030Z,99209.00
2022-12-29T07:10:57.917Z,99206.00
2022-12-29T07:13:24.822Z,99218.00
2022-12-29T07:15:54.475Z,99219.00
2022-12-29T07:18:21.326Z,99211.00
2022-12-29T07:20:48.215Z,99211.00
2022-12-29T07:23:15.466Z,99208.00
2022-12-29T07:25:42.316Z,99201.00
2022-12-29T07:28:09.294Z,99205.00
2022-12-29T07:30:39.012Z,99196.00
2022-12-29T07:33:06.004Z,99207.00
2022-12-29T07:35:34.788Z,99205.00
2022-12-29T07:38:01.572Z,99216.00
2022-12-29T07:40:28.477Z,99225.00
2022-12-29T07:55:02.135Z,99211.00
2022-12-29T07:57:32.001Z,99214.00
2022-12-29T07:59:59.717Z,99191.00
2022-12-29T08:02:27.640Z,99209.00
2022-12-29T08:04:54.719Z,99216.00
2022-12-29T08:07:21.699Z,99207.00
2022-12-29T08:09:48.545Z,99196.00
2022-12-29T08:12:15.479Z,99207.00
2022-12-29T08:14:42.375Z,99215.00
2022-12-29T08:17:09.288Z,99218.00
2022-12-29T08:19:36.182Z,99210.00
2022-12-29T08:22:03.535Z,99209.00
2022-12-29T08:24:30.471Z,99208.00
2022-12-29T08:26:57.350Z,99212.00
2022-12-29T08:29:24.295Z,99208.00
2022-12-29T08:31:51.141Z,99221.00
2022-12-29T08:34:18.043Z,99216.00
2022-12-29T08:36:44.907Z,99217.00
2022-12-29T08:39:11.754Z,99216.00
2022-12-29T08:41:38.672Z,99206.00
2022-12-29T08:44:06.046Z,99201.00
2022-12-29T08:46:33.256Z,99214.00
2022-12-29T08:49:00.192Z,99215.00
2022-12-29T08:51:27.185Z,99211.00
2022-12-29T08:53:54.582Z,99218.00
2022-12-29T08:56:21.669Z,99196.00
2022-12-29T08:58:48.563Z,99207.00
2022-12-29T09:01:15.471Z,99212.00
2022-12-29T09:06:29.804Z,99204.00
2022-12-29T09:08:58.497Z,99206.00
2022-12-29T09:11:26.471Z,99202.00
2022-12-29T09:13:54.367Z,99199.00
2022-12-29T09:16:24.431Z,99207.00
2022-12-29T09:18:51.982Z,99185.00
2022-12-29T09:21:19.221Z,99201.00
2022-12-29T09:23:46.143Z,99202.00
2022-12-29T09:26:12.961Z,99210.00
2022-12-29T09:28:39.974Z,99205.00
2022-12-29T09:31:07.589Z,99199.00
2022-12-29T09:33:35.168Z,99203.00
2022-12-29T09:36:02.834Z,99189.00
2022-12-29T09:38:30.337Z,99188.00
2022-12-29T09:41:19.409Z,99184.00
2022-12-29T09:44:06.129Z,99170.00
2022-12-29T09:46:49.160Z,99179.00
2022-12-29T09:49:47.123Z,99165.00
2022-12-29T09:52:22.096Z,99170.00
2022-12-29T09:55:14.013Z,99164.00
2022-12-29T09:58:06.442Z,99169.00
2022-12-29T10:00:54.936Z,99174.00
2022-12-29T10:03:28.173Z,99166.00
2022-12-29T10:06:17.528Z,99175.00
2022-12-29T10:08:58.639Z,99173.00
2022-12-29T10:12:01.263Z,99182.00
2022-12-29T10:15:12.793Z,99167.00
2022-12-29T10:18:00.112Z,99179.00
2022-12-29T10:20:57.558Z,99166.00
2022-12-29T10:23:45.537Z,99182.00
2022-12-29T10:26:18.957Z,99176.00
2022-12-29T10:29:06.019Z,99167.00
2022-12-29T10:31:43.839Z,99168.00
2022-12-29T10:34:25.372Z,99150.00
2022-12-29T10:37:25.354Z,99139.00
2022-12-29T10:39:57.203Z,99143.00
2022-12-29T10:42:37.690Z,99143.00
2022-12-29T10:45:06.472Z,99132.00
2022-12-29T10:47:43.266Z,99134.00
2022-12-29T10:50:13.937Z,99130.00
2022-12-29T10:52:42.021Z,99128.00
2022-12-29T10:55:26.054Z,99138.00
2022-12-29T10:57:53.533Z,99119.00
2022-12-29T11:00:22.912Z,99129.00
2022-12-29T11:03:24.797Z,99128.00
2022-12-29T11:06:13.218Z,99139.00
2022-12-29T11:09:00.146Z,99116.00
2022-12-29T11:11:35.191Z,99125.00
2022-12-29T11:14:28.695Z,99128.00
2022-12-29T11:17:00.735Z,99138.00
2022-12-29T11:19:40.466Z,99136.00
2022-12-29T11:22:29.686Z,99131.00
2022-12-29T11:25:13.736Z,99135.00
2022-12-29T11:27:55.520Z,99128.00
2022-12-29T11:30:30.547Z,99135.00
2022-12-29T11:33:04.157Z,99129.00
2022-12-29T11:35:36.905Z,99123.00
2022-12-29T11:38:06.163Z,99137.00
2022-12-29T11:40:40.336Z,99134.00
2022-12-29T11:43:21.544Z,99132.00
2022-12-29T11:45:48.684Z,99139.00
2022-12-29T11:48:20.855Z,99128.00
2022-12-29T11:51:00.261Z,99124.00
2022-12-29T11:53:52.656Z,99123.00
2022-12-29T11:56:38.420Z,99131.00
2022-12-29T11:59:50.079Z,99116.00
2022-12-29T12:02:45.431Z,99114.00
2022-12-29T12:05:40.618Z,99105.00
2022-12-29T12:08:32.596Z,99108.00
2022-12-29T12:11:17.580Z,99102.00
2022-12-29T12:14:17.825Z,99100.00
2022-12-29T12:17:07.273Z,99104.00
2022-12-29T12:19:54.050Z,99104.00
2022-12-29T12:22:42.830Z,99104.00
2022-12-29T12:25:39.249Z,99107.00
2022-12-29T12:28:25.519Z,99102.00
2022-12-29T12:31:00.300Z,99104.00
2022-12-29T12:33:43.111Z,99107.00
2022-12-29T12:37:16.139Z,99102.00
2022-12-29T12:40:08.463Z,99102.00
2022-12-29T12:42:49.913Z,99113.00
2022-12-29T12:45:40.009Z,99102.00
2022-12-29T12:48:33.476Z,99099.00
2022-12-29T12:51:11.931Z,99088.00
2022-12-29T12:53:57.882Z,99098.00
2022-12-29T12:57:16.284Z,99090.00
2022-12-29T13:00:19.702Z,99091.00
2022-12-29T13:03:18.400Z,99090.00
2022-12-29T13:06:12.681Z,99095.00
2022-12-29T13:09:15.577Z,99099.00
2022-12-29T13:12:36.737Z,99097.00
2022-12-29T13:15:23.455Z,99107.00
2022-12-29T13:18:06.262Z,99119.00
2022-12-29T13:21:12.327Z,99106.00
2022-12-29T13:24:19.958Z,99111.00
2022-12-29T13:27:00.441Z,99081.00
2022-12-29T13:30:20.481Z,99115.00
2022-12-29T13:33:21.768Z,99111.00
2022-12-29T13:36:05.904Z,99121.00
2022-12-29T13:38:42.166Z,99103.00
2022-12-29T13:41:34.619Z,99132.00
2022-12-29T13:44:06.346Z,99134.00
2022-12-29T13:46:41.681Z,99131.00
2022-12-29T13:49:16.325Z,99136.00
2022-12-29T13:51:57.090Z,99124.00
2022-12-29T13:54:48.733Z,99124.00
2022-12-29T13:57:36.150Z,99131.00
2022-12-29T14:00:20.298Z,99132.00
2022-12-29T14:02:47.409Z,99133.00
2022-12-29T14:05:23.261Z,99135.00
2022-12-29T14:08:01.064Z,99081.00
2022-12-29T14:10:38.923Z,99140.00
2022-12-29T14:13:14.713Z,99133.00
2022-12-29T14:15:46.376Z,99127.00
2022-12-29T14:18:20.029Z,99124.00
2022-12-29T14:21:00.294Z,99139.00
2022-12-29T14:23:47.553Z,99134.00
2022-12-29T14:26:32.435Z,99140.00
2022-12-29T14:29:39.958Z,99148.00
2022-12-29T14:32:25.716Z,99136.00
2022-12-29T14:35:01.977Z,99157.00
2022-12-29T14:37:35.048Z,99154.00
2022-12-29T14:40:16.354Z,99149.00
2022-12-29T14:42:44.362Z,99146.00
2022-12-29T14:45:13.896Z,99155.00
2022-12-29T14:47:47.188Z,99154.00
2022-12-29T14:50:19.239Z,99145.00
2022-12-29T14:53:04.397Z,99146.00
2022-12-29T14:55:55.973Z,99147.00
2022-12-29T14:58:52.820Z,99142.00
2022-12-29T15:01:39.656Z,99135.00
2022-12-29T15:04:19.282Z,99143.00
2022-12-29T15:06:48.628Z,99142.00
2022-12-29T15:09:37.384Z,99143.00
2022-12-29T15:12:36.922Z,99138.00
2022-12-29T15:15:41.545Z,99147.00
2022-12-29T15:18:31.182Z,99139.00
2022-12-29T15:21:07.425Z,99114.00
2022-12-29T15:23:37.804Z,99133.00
2022-12-29T15:26:08.584Z,99133.00
2022-12-29T15:29:01.588Z,99131.00
2022-12-29T15:31:30.889Z,99136.00
2022-12-29T15:34:24.477Z,99134.00
2022-12-29T15:36:52.139Z,99134.00
2022-12-29T15:39:30.995Z,99145.00
2022-12-29T15:42:18.093Z,99136.00
2022-12-29T15:44:46.366Z,99124.00
2022-12-29T15:47:21.384Z,99115.00
2022-12-29T15:50:02.155Z,99132.00
2022-12-29T15:52:30.798Z,99134.00
2022-12-29T15:55:01.540Z,99125.00
2022-12-29T15:57:36.926Z,99130.00
2022-12-29T16:00:21.998Z,99139.00
2022-12-29T16:02:50.261Z,99129.00
2022-12-29T16:05:19.498Z,99143.00
2022-12-29T16:07:59.947Z,99143.00
2022-12-29T16:10:54.796Z,99138.00
2022-12-29T16:13:39.599Z,99136.00
2022-12-29T16:16:23.679Z,99134.00
2022-12-29T16:18:57.401Z,99142.00
2022-12-29T16:21:32.893Z,99133.00
2022-12-29T16:24:27.213Z,99148.00
2022-12-29T16:27:09.939Z,99144.00
2022-12-29T16:29:37.679Z,99143.00
2022-12-29T16:32:27.974Z,99142.00
2022-12-29T16:35:20.849Z,99144.00
2022-12-29T16:37:48.443Z,99132.00
2022-12-29T16:40:32.152Z,99133.00
2022-12-29T16:43:05.269Z,99135.00
2022-12-29T16:45:47.311Z,99146.00
2022-12-29T16:48:14.177Z,99141.00
2022-12-29T16:50:44.801Z,99133.00
2022-12-29T16:53:34.461Z,99151.00
2022-12-29T16:56:14.475Z,99153.00
2022-12-29T16:58:44.403Z,99159.00
2022-12-29T17:01:20.424Z,99155.00
2022-12-29T17:04:05.445Z,99161.00
2022-12-29T17:06:32.429Z,99154.00
2022-12-29T17:08:59.360Z,99156.00
2022-12-29T17:11:55.577Z,99159.00
2022-12-29T17:14:48.069Z,99161.00
2022-12-29T17:17:24.726Z,99169.00
2022-12-29T17:20:00.429Z,99168.00
2022-12-29T17:22:31.225Z,99163.00
2022-12-29T17:25:02.723Z,99173.00
2022-12-29T17:27:43.781Z,99162.00
2022-12-29T17:30:20.797Z,99158.00
2022-12-29T17:32:54.542Z,99156.00
2022-12-29T17:35:23.177Z,99159.00
2022-12-29T17:37:51.465Z,99173.00
2022-12-29T17:40:23.509Z,99177.00
2022-12-29T17:42:54.908Z,99175.00
2022-12-29T17:45:33.188Z,99183.00
2022-12-29T17:48:01.874Z,99194.00
2022-12-29T17:50:31.667Z,99201.00
2022-12-29T17:53:06.225Z,99189.00
2022-12-29T17:55:38.047Z,99205.00
2022-12-29T17:58:29.880Z,99207.00
2022-12-29T18:01:00.299Z,99199.00
2022-12-29T18:03:40.723Z,99209.00
2022-12-29T18:06:11.651Z,99201.00
2022-12-29T18:08:42.408Z,99214.00
2022-12-29T18:11:24.809Z,99212.00
2022-12-29T18:13:53.364Z,99203.00
2022-12-29T18:16:21.692Z,99212.00
2022-12-29T18:18:48.692Z,99182.00
2022-12-29T18:21:24.440Z,99227.00
2022-12-29T18:23:51.932Z,99218.00
2022-12-29T18:26:28.509Z,99227.00
2022-12-29T18:28:58.515Z,99235.00
2022-12-29T18:31:28.798Z,99218.00
2022-12-29T18:33:58.978Z,99224.00
2022-12-29T18:36:27.062Z,99227.00
2022-12-29T18:38:54.778Z,99212.00
2022-12-29T18:41:31.208Z,99214.00
2022-12-29T18:44:01.486Z,99219.00
2022-12-29T18:46:28.865Z,99216.00
2022-12-29T18:48:56.030Z,99219.00
2022-12-29T18:51:25.276Z,99215.00
2022-12-29T18:53:54.478Z,99221.00
2022-12-29T18:56:23.355Z,99219.00
2022-12-29T18:58:51.638Z,99216.00
2022-12-29T19:01:25.411Z,99231.00
2022-12-29T19:03:53.813Z,99219.00
2022-12-29T19:06:21.431Z,99221.00
2022-12-29T19:08:48.719Z,99226.00
2022-12-29T19:11:15.645Z,99227.00
2022-12-29T19:13:42.570Z,99224.00
2022-12-29T19:16:19.630Z,99228.00
2022-12-29T19:18:58.193Z,99221.00
2022-12-29T19:21:33.836Z,99222.00
2022-12-29T19:24:00.666Z,99207.00
2022-12-29T19:26:37.969Z,99222.00
2022-12-29T19:29:08.631Z,99221.00
2022-12-29T19:31:38.552Z,99212.00
2022-12-29T19:34:05.628Z,99128.00
2022-12-29T19:36:32.638Z,99226.00
2022-12-29T19:38:59.735Z,99228.00
2022-12-29T19:41:26.680Z,99226.00
2022-12-29T19:43:53.670Z,99232.00
2022-12-29T19:46:20.931Z,99229.00
2022-12-29T19:48:47.941Z,99236.00
2022-12-29T19:51:17.241Z,99233.00
2022-12-29T19:53:46.489Z,99247.00
2022-12-29T19:56:14.401Z,99244.00
2022-12-29T19:58:46.624Z,99248.00
2022-12-29T20:01:21.239Z,99240.00
2022-12-29T20:03:49.792Z,99247.00
2022-12-29T20:06:20.867Z,99243.00
2022-12-29T20:08:47.870Z,99248.00
2022-12-29T20:11:19.116Z,99243.00
2022-12-29T20:13:47.554Z,99242.00
2022-12-29T20:16:18.984Z,99248.00
2022-12-29T20:18:46.909Z,99254.00
2022-12-29T20:21:21.448Z,99254.00
2022-12-29T20:23:50.716Z,99247.00
2022-12-29T20:26:30.185Z,99244.00
2022-12-29T20:28:58.622Z,99261.00
2022-12-29T20:31:48.996Z,99252.00
2022-12-29T20:34:16.346Z,99262.00
2022-12-29T20:36:46.622Z,99250.00
2022-12-29T20:39:20.106Z,99255.00
2022-12-29T20:41:47.528Z,99251.00
2022-12-29T20:44:14.368Z,99254.00
2022-12-29T20:46:44.278Z,99253.00
2022-12-29T20:49:11.658Z,99263.00
2022-12-29T20:52:05.239Z,99253.00
2022-12-29T20:54:25.554Z,99263.00
2022-12-29T20:56:52.481Z,99261.00
2022-12-29T20:59:28.336Z,99267.00
2022-12-29T21:01:57.366Z,99261.00
2022-12-29T21:04:24.750Z,99259.00
2022-12-29T21:06:51.703Z,99261.00
2022-12-29T21:09:20.368Z,99265.00
2022-12-29T21:11:48.388Z,99259.00
2022-12-29T21:14:15.246Z,99263.00
2022-12-29T21:16:42.430Z,99242.00
2022-12-29T21:19:09.378Z,99248.00
2022-12-29T21:21:36.254Z,99260.00
2022-12-29T21:24:05.860Z,99274.00
2022-12-29T21:38:35.508Z,99299.00
2022-12-29T21:41:12.361Z,99292.00
2022-12-29T21:43:39.213Z,99286.00
2022-12-29T21:46:06.601Z,99295.00
2022-12-29T21:48:34.190Z,99294.00
2022-12-29T21:51:31.348Z,99309.00
2022-12-29T21:54:19.972Z,99309.00
2022-12-29T21:56:48.856Z,99300.00
2022-12-29T21:59:35.687Z,99307.00
2022-12-29T22:02:24.948Z,99304.00
2022-12-29T22:05:10.692Z,99294.00
2022-12-29T22:07:56.112Z,99304.00
2022-12-29T22:10:41.650Z,99300.00
2022-12-29T22:13:08.476Z,99310.00
2022-12-29T22:15:37.709Z,99321.00
2022-12-29T22:18:05.306Z,99324.00
2022-12-29T22:20:36.467Z,99331.00
2022-12-29T22:23:03.909Z,99329.00
2022-12-29T22:25:31.197Z,99332.00
2022-12-29T22:27:59.943Z,99326.00
2022-12-29T22:30:29.786Z,99326.00
2022-12-29T22:33:01.578Z,99324.00
2022-12-29T22:35:28.941Z,99306.00
2022-12-29T22:37:55.851Z,99325.00
2022-12-29T22:40:22.792Z,99326.00
2022-12-29T22:42:49.887Z,99328.00
2022-12-29T22:45:16.844Z,99328.00
2022-12-29T22:47:43.681Z,99319.00
2022-12-29T22:50:10.614Z,99327.00
2022-12-29T22:52:37.620Z,99324.00
2022-12-29T22:55:07.273Z,99328.00
2022-12-29T22:57:35.830Z,99340.00
2022-12-29T23:00:06.322Z,99335.00
2022-12-29T23:02:33.357Z,99341.00
2022-12-29T23:05:04.696Z,99346.00
2022-12-29T23:07:34.628Z,99336.00
2022-12-29T23:10:02.644Z,99346.00
2022-12-29T23:12:31.618Z,99335.00
2022-12-29T23:14:58.732Z,99338.00
2022-12-29T23:17:25.664Z,99331.00
2022-12-29T23:19:53.134Z,99335.00
2022-12-29T23:22:20.409Z,99340.00
2022-12-29T23:24:47.311Z,99336.00
2022-12-29T23:27:14.180Z,99340.00
2022-12-29T23:29:41.049Z,99327.00
2022-12-29T23:32:08.006Z,99337.00
2022-12-29T23:34:34.922Z,99343.00
2022-12-29T23:37:01.856Z,99346.00
2022-12-29T23:39:29.437Z,99349.00
2022-12-29T23:41:57.280Z,99347.00
2022-12-29T23:44:24.319Z,99362.00
2022-12-29T23:46:51.245Z,99361.00
2022-12-29T23:49:18.264Z,99358.00
2022-12-29T23:51:47.840Z,99340.00
2022-12-29T23:54:14.934Z,99337.00
2022-12-29T23:56:41.815Z,99343.00
2022-12-29T23:59:08.732Z,99353.00
